Chaykovskiy, Russia
Current Conditions -  °F | °C
As of 10:00 AM on Thursday 23 Oct 2014 (Local Time) from UWKE Reporting Station
Broken Clouds Broken Clouds  
Wind Chill: -6°   Ceiling: 2200
Heat Index: 10°   Visibility: 6mi
Dew Point:   Wind: 16mph
Humidity: 67%   Direction: 250°WSW
Pressure: 29.68"   Gusts: 22mph
Location:  56.78°N, 54.15°E
Report Text: UWKE 230500Z 25007G10MPS 9999 BKN022 M12/M17 Q1005 NOSIG RMKQFE737/0982 21090070
Loading
Personal Weather Stations






























Interactive Weather Map
Tropical Storm Tracking
New forecast layout! Learn more

10-Day Weather Forecast

Advertisements
Track Severe Weather on mobile